createdAt,value
2017-10-18T00:00:12.107Z,32.77
2017-10-18T00:02:40.617Z,32.17
2017-10-18T00:05:09.093Z,36.20
2017-10-18T00:07:37.484Z,33.87
2017-10-18T00:10:05.871Z,33.50
2017-10-18T00:12:34.241Z,34.80
2017-10-18T00:15:02.606Z,33.60
2017-10-18T00:17:31.000Z,34.17
2017-10-18T00:19:59.653Z,33.53
2017-10-18T00:22:28.245Z,34.77
2017-10-18T00:24:56.928Z,35.70
2017-10-18T00:27:25.451Z,34.87
2017-10-18T00:29:54.044Z,36.20
2017-10-18T00:32:22.572Z,34.27
2017-10-18T00:34:51.248Z,32.27
2017-10-18T00:37:19.645Z,30.90
2017-10-18T00:39:48.008Z,36.10
2017-10-18T00:42:16.364Z,33.43
2017-10-18T00:44:44.723Z,32.20
2017-10-18T00:47:13.117Z,34.27
2017-10-18T00:49:42.287Z,33.23
2017-10-18T00:52:10.651Z,33.47
2017-10-18T00:54:39.017Z,33.20
2017-10-18T00:57:07.432Z,32.27
2017-10-18T00:59:35.791Z,34.07
2017-10-18T01:02:04.151Z,33.37
2017-10-18T01:04:32.523Z,31.60
2017-10-18T01:07:00.887Z,33.30
2017-10-18T01:09:29.249Z,33.07
2017-10-18T01:11:57.612Z,32.67
2017-10-18T01:14:25.980Z,34.77
2017-10-18T01:16:54.339Z,34.30
2017-10-18T01:19:22.737Z,34.07
2017-10-18T01:21:51.100Z,30.97
2017-10-18T01:24:20.014Z,32.00
2017-10-18T01:26:48.369Z,36.00
2017-10-18T01:29:16.729Z,35.23
2017-10-18T01:31:45.122Z,35.87
2017-10-18T01:34:13.488Z,34.20
2017-10-18T01:36:41.851Z,33.13
2017-10-18T01:39:10.246Z,31.80
2017-10-18T01:41:38.606Z,31.53
2017-10-18T01:44:06.963Z,33.57
2017-10-18T01:46:35.332Z,32.13
2017-10-18T01:49:03.727Z,32.23
2017-10-18T01:51:32.093Z,29.93
2017-10-18T01:54:00.484Z,30.90
2017-10-18T01:56:29.289Z,31.10
2017-10-18T01:58:57.648Z,32.50
2017-10-18T02:01:26.046Z,30.80
2017-10-18T02:03:54.414Z,33.70
2017-10-18T02:06:22.763Z,33.87
2017-10-18T02:08:51.133Z,31.97
2017-10-18T02:11:19.496Z,30.20
2017-10-18T02:13:47.879Z,30.43
2017-10-18T02:16:16.240Z,32.10
2017-10-18T02:18:44.651Z,30.90
2017-10-18T02:21:13.005Z,29.03
2017-10-18T02:23:41.451Z,29.80
2017-10-18T02:26:09.820Z,32.80
2017-10-18T02:28:38.176Z,30.00
2017-10-18T02:31:06.544Z,32.37
2017-10-18T02:33:34.937Z,29.60
2017-10-18T02:36:03.299Z,30.80
2017-10-18T02:38:31.664Z,31.23
2017-10-18T02:41:00.032Z,30.13
2017-10-18T02:43:28.393Z,27.90
2017-10-18T02:45:56.756Z,27.07
2017-10-18T02:48:25.124Z,31.60
2017-10-18T02:50:53.485Z,32.40
2017-10-18T02:53:21.837Z,31.77
2017-10-18T02:55:50.273Z,28.90
2017-10-18T02:58:18.628Z,28.60
2017-10-18T03:00:47.021Z,30.30
2017-10-18T03:03:15.381Z,28.33
2017-10-18T03:05:43.744Z,27.60
2017-10-18T03:08:12.100Z,29.60
2017-10-18T03:10:40.517Z,30.60
2017-10-18T03:13:08.881Z,31.00
2017-10-18T03:15:37.240Z,28.40
2017-10-18T03:18:05.598Z,29.30
2017-10-18T03:20:33.951Z,32.67
2017-10-18T03:23:02.363Z,31.50
2017-10-18T03:25:30.737Z,32.77
2017-10-18T03:27:59.120Z,33.77
2017-10-18T03:30:27.487Z,31.17
2017-10-18T03:32:55.845Z,29.60
2017-10-18T03:35:24.204Z,27.40
2017-10-18T03:37:52.565Z,25.93
2017-10-18T03:40:20.926Z,26.77
2017-10-18T03:42:49.288Z,28.07
2017-10-18T03:45:17.656Z,25.33
2017-10-18T03:47:46.052Z,25.90
2017-10-18T03:50:14.433Z,25.90
2017-10-18T03:52:42.804Z,25.30
2017-10-18T03:55:11.159Z,25.43
2017-10-18T03:57:39.521Z,26.33
2017-10-18T04:00:07.890Z,25.70
2017-10-18T04:02:36.255Z,25.60
2017-10-18T04:05:04.617Z,24.87
2017-10-18T04:07:32.985Z,23.33
2017-10-18T04:10:01.336Z,25.27
2017-10-18T04:12:29.700Z,25.40
2017-10-18T04:14:58.059Z,25.27
2017-10-18T04:17:26.531Z,27.07
2017-10-18T04:19:55.163Z,27.53
2017-10-18T04:22:24.461Z,26.10
2017-10-18T04:24:53.137Z,25.43
2017-10-18T04:27:21.866Z,24.53
2017-10-18T04:29:50.591Z,25.70
2017-10-18T04:32:19.195Z,26.80
2017-10-18T04:34:47.864Z,26.40
2017-10-18T04:37:16.296Z,25.23
2017-10-18T04:39:44.883Z,28.17
2017-10-18T04:42:13.762Z,25.63
2017-10-18T04:44:42.790Z,26.13
2017-10-18T04:47:12.409Z,26.30
2017-10-18T04:49:41.105Z,26.73
2017-10-18T04:52:09.891Z,25.10
2017-10-18T04:54:38.600Z,25.47
2017-10-18T04:57:07.321Z,24.87
2017-10-18T04:59:36.049Z,24.70
2017-10-18T05:02:04.446Z,25.67
2017-10-18T05:04:32.805Z,25.17
2017-10-18T05:07:01.488Z,24.00
2017-10-18T05:09:30.240Z,25.40
2017-10-18T05:11:59.095Z,27.83
2017-10-18T05:14:27.859Z,24.50
2017-10-18T05:16:56.569Z,26.60
2017-10-18T05:19:25.413Z,26.63
2017-10-18T05:21:54.099Z,25.37
2017-10-18T05:24:23.132Z,26.03
2017-10-18T05:26:52.850Z,24.30
2017-10-18T05:29:21.652Z,24.97
2017-10-18T05:31:50.202Z,22.57
2017-10-18T05:34:18.867Z,24.93
2017-10-18T05:36:48.461Z,24.17
2017-10-18T05:39:17.146Z,23.57
2017-10-18T05:41:45.769Z,23.90
2017-10-18T05:44:14.421Z,27.40
2017-10-18T05:46:43.167Z,25.97
2017-10-18T05:49:12.444Z,24.53
2017-10-18T05:51:41.625Z,27.63
2017-10-18T05:54:10.423Z,24.00
2017-10-18T05:56:39.191Z,27.47
2017-10-18T05:59:07.911Z,25.27
2017-10-18T06:01:36.668Z,25.57
2017-10-18T06:04:05.405Z,26.57
2017-10-18T06:06:34.964Z,26.70
2017-10-18T06:09:03.885Z,24.73
2017-10-18T06:11:32.614Z,27.80
2017-10-18T06:14:01.327Z,26.30
2017-10-18T06:16:30.341Z,28.10
2017-10-18T06:18:59.126Z,24.50
2017-10-18T06:21:27.935Z,24.93
2017-10-18T06:23:56.833Z,24.00
2017-10-18T06:26:25.629Z,24.90
2017-10-18T06:28:54.342Z,26.03
2017-10-18T06:31:23.093Z,24.17
2017-10-18T06:33:51.773Z,27.10
2017-10-18T06:36:20.488Z,24.20
2017-10-18T06:38:49.348Z,25.90
2017-10-18T06:41:18.994Z,26.00
2017-10-18T06:43:47.679Z,24.60
2017-10-18T06:46:16.309Z,24.30
2017-10-18T06:48:45.102Z,25.50
2017-10-18T06:51:13.894Z,26.50
2017-10-18T06:53:42.792Z,25.43
2017-10-18T06:56:11.211Z,29.77
2017-10-18T06:58:39.584Z,26.10
2017-10-18T07:01:07.940Z,25.13
2017-10-18T07:03:36.309Z,25.60
2017-10-18T07:06:04.687Z,24.27
2017-10-18T07:08:33.083Z,25.83
2017-10-18T07:11:01.466Z,24.90
2017-10-18T07:13:29.837Z,24.27
2017-10-18T07:15:58.195Z,26.37
2017-10-18T07:18:26.563Z,25.73
2017-10-18T07:20:54.999Z,23.53
2017-10-18T07:23:23.400Z,23.10
2017-10-18T07:25:51.765Z,23.30
2017-10-18T07:28:20.116Z,23.27
2017-10-18T07:30:48.707Z,23.97
2017-10-18T07:33:17.074Z,22.80
2017-10-18T07:35:45.637Z,22.90
2017-10-18T07:38:14.153Z,23.07
2017-10-18T07:40:44.130Z,20.60
2017-10-18T07:43:12.739Z,21.57
2017-10-18T07:45:41.187Z,22.90
2017-10-18T07:48:11.088Z,22.17
2017-10-18T07:50:39.478Z,20.50
2017-10-18T07:53:07.871Z,20.63
2017-10-18T07:55:39.978Z,20.70
2017-10-18T07:58:08.361Z,19.73
2017-10-18T08:00:43.092Z,20.20
2017-10-18T08:03:11.712Z,19.50
2017-10-18T08:05:40.182Z,18.87
2017-10-18T08:08:08.577Z,19.70
2017-10-18T08:10:37.019Z,21.20
2017-10-18T08:13:05.381Z,20.00
2017-10-18T08:15:33.764Z,20.10
2017-10-18T08:18:02.223Z,20.60
2017-10-18T08:20:30.585Z,21.73
2017-10-18T08:22:58.955Z,17.40
2017-10-18T08:25:27.326Z,19.67
2017-10-18T08:27:55.715Z,17.07
2017-10-18T08:30:24.080Z,13.80
2017-10-18T08:32:52.672Z,11.73
2017-10-18T08:35:21.062Z,9.53
2017-10-18T08:37:49.413Z,8.53
2017-10-18T08:40:17.788Z,7.70
2017-10-18T08:42:46.140Z,7.93
2017-10-18T08:45:14.525Z,7.60
2017-10-18T08:47:42.904Z,8.13
2017-10-18T08:50:11.253Z,8.07
2017-10-18T08:52:39.617Z,7.70
2017-10-18T08:55:07.960Z,8.30
2017-10-18T08:57:36.339Z,7.50
2017-10-18T09:00:04.719Z,8.03
2017-10-18T09:02:33.107Z,7.50
2017-10-18T09:05:01.459Z,7.70
2017-10-18T09:07:29.840Z,8.20
2017-10-18T09:09:58.176Z,7.33
2017-10-18T09:12:26.521Z,7.13
2017-10-18T09:14:54.899Z,7.10
2017-10-18T09:17:23.277Z,6.87
2017-10-18T09:19:51.645Z,6.80
2017-10-18T09:22:20.017Z,6.40
2017-10-18T09:24:48.395Z,6.27
2017-10-18T09:27:16.728Z,5.40
2017-10-18T09:29:45.083Z,5.73
2017-10-18T09:32:13.471Z,5.67
2017-10-18T09:34:41.816Z,5.60
2017-10-18T09:37:10.192Z,6.07
2017-10-18T09:39:38.537Z,5.60
2017-10-18T09:42:06.927Z,5.00
2017-10-18T09:44:35.286Z,4.27
2017-10-18T09:47:03.657Z,4.40
2017-10-18T09:49:32.031Z,5.13
2017-10-18T09:52:00.372Z,5.07
2017-10-18T09:54:28.728Z,4.33
2017-10-18T09:56:57.073Z,4.30
2017-10-18T09:59:25.424Z,4.87
2017-10-18T10:01:53.792Z,4.40
2017-10-18T10:04:22.188Z,5.13
2017-10-18T10:06:50.536Z,4.23
2017-10-18T10:09:18.887Z,4.33
2017-10-18T10:11:47.245Z,4.70
2017-10-18T10:14:15.585Z,5.27
2017-10-18T10:16:43.959Z,4.63
2017-10-18T10:19:12.346Z,4.53
2017-10-18T10:21:40.693Z,4.60
2017-10-18T10:24:09.041Z,4.87
2017-10-18T10:26:37.388Z,4.73
2017-10-18T10:29:05.847Z,5.60
2017-10-18T10:31:34.179Z,5.37
2017-10-18T10:34:02.548Z,4.80
2017-10-18T10:36:30.899Z,4.87
2017-10-18T10:38:59.271Z,4.60
2017-10-18T10:41:27.645Z,4.47
2017-10-18T10:43:56.012Z,3.93
2017-10-18T10:46:24.379Z,4.80
2017-10-18T10:48:52.750Z,4.50
2017-10-18T10:51:21.092Z,3.80
2017-10-18T10:53:49.455Z,5.17
2017-10-18T10:56:17.802Z,3.43
2017-10-18T10:58:46.209Z,4.00
2017-10-18T11:01:14.544Z,4.40
2017-10-18T11:03:42.892Z,3.87
2017-10-18T11:06:11.241Z,3.97
2017-10-18T11:08:39.580Z,2.97
2017-10-18T11:11:07.954Z,3.10
2017-10-18T11:13:36.323Z,3.97
2017-10-18T11:16:04.696Z,3.90
2017-10-18T11:18:33.049Z,3.70
2017-10-18T11:21:01.407Z,4.60
2017-10-18T11:23:29.752Z,4.07
2017-10-18T11:25:58.156Z,4.40
2017-10-18T11:28:26.508Z,4.20
2017-10-18T11:30:54.853Z,4.57
2017-10-18T11:33:23.197Z,5.10
2017-10-18T11:35:51.573Z,4.03
2017-10-18T11:38:19.908Z,3.23
2017-10-18T11:40:48.271Z,4.30
2017-10-18T11:43:16.618Z,4.80
2017-10-18T11:45:44.985Z,4.03
2017-10-18T11:48:13.323Z,4.87
2017-10-18T11:50:41.692Z,4.80
2017-10-18T11:53:10.033Z,4.53
2017-10-18T11:55:38.380Z,4.30
2017-10-18T11:58:06.748Z,4.30
2017-10-18T12:00:35.091Z,4.33
2017-10-18T12:03:03.468Z,4.60
2017-10-18T12:05:31.813Z,4.53
2017-10-18T12:08:00.168Z,4.30
2017-10-18T12:10:28.635Z,4.60
2017-10-18T12:12:56.971Z,4.10
2017-10-18T12:15:25.353Z,4.83
2017-10-18T12:17:53.693Z,4.10
2017-10-18T12:20:22.059Z,4.30
2017-10-18T12:22:50.506Z,4.37
2017-10-18T12:25:18.865Z,4.57
2017-10-18T12:27:47.214Z,4.03
2017-10-18T12:30:15.598Z,4.00
2017-10-18T12:32:43.981Z,3.83
2017-10-18T12:35:13.472Z,4.07
2017-10-18T12:37:42.020Z,4.10
2017-10-18T12:40:10.462Z,3.70
2017-10-18T12:42:38.827Z,4.27
2017-10-18T12:45:07.184Z,3.43
2017-10-18T12:47:35.540Z,4.23
2017-10-18T12:50:03.892Z,3.70
2017-10-18T12:52:32.228Z,4.10
2017-10-18T12:55:00.620Z,4.07
2017-10-18T12:57:28.968Z,4.00
2017-10-18T12:59:57.331Z,4.27
2017-10-18T13:02:25.700Z,3.93
2017-10-18T13:04:54.068Z,4.57
2017-10-18T13:07:22.420Z,4.30
2017-10-18T13:09:50.789Z,4.00
2017-10-18T13:12:19.158Z,4.63
2017-10-18T13:14:47.532Z,4.40
2017-10-18T13:17:15.900Z,4.50
2017-10-18T13:19:44.293Z,4.80
2017-10-18T13:22:12.652Z,4.53
2017-10-18T13:24:41.037Z,5.27
2017-10-18T13:27:09.376Z,4.40
2017-10-18T13:29:37.805Z,4.70
2017-10-18T13:32:06.132Z,4.23
2017-10-18T13:34:34.496Z,5.17
2017-10-18T13:37:02.847Z,4.30
2017-10-18T13:39:31.483Z,4.30
2017-10-18T13:41:59.852Z,4.37
2017-10-18T13:44:28.229Z,4.50
2017-10-18T13:46:56.595Z,4.20
2017-10-18T13:49:24.967Z,4.50
2017-10-18T13:51:53.333Z,4.40
2017-10-18T13:54:21.677Z,4.37
2017-10-18T13:56:50.043Z,4.10
2017-10-18T13:59:18.393Z,4.20
2017-10-18T14:01:46.740Z,4.60
2017-10-18T14:04:15.144Z,4.47
2017-10-18T14:06:43.491Z,4.20
2017-10-18T14:09:11.905Z,4.43
2017-10-18T14:11:40.252Z,5.00
2017-10-18T14:14:08.594Z,4.50
2017-10-18T14:16:36.963Z,5.37
2017-10-18T14:19:05.322Z,4.47
2017-10-18T14:21:33.691Z,4.43
2017-10-18T14:24:02.041Z,5.47
2017-10-18T14:26:30.418Z,5.40
2017-10-18T14:28:59.059Z,5.60
2017-10-18T14:31:27.491Z,5.30
2017-10-18T14:33:56.071Z,4.23
2017-10-18T14:36:24.485Z,4.67
2017-10-18T14:38:52.962Z,5.30
2017-10-18T14:41:21.364Z,5.30
2017-10-18T14:43:49.720Z,5.30
2017-10-18T14:46:18.059Z,5.90
2017-10-18T14:48:46.421Z,5.27
2017-10-18T14:51:14.800Z,4.80
2017-10-18T14:53:43.142Z,4.40
2017-10-18T14:56:11.512Z,6.23
2017-10-18T14:58:39.862Z,5.13
2017-10-18T15:01:08.232Z,5.83
2017-10-18T15:03:36.582Z,6.00
2017-10-18T15:06:04.943Z,5.63
2017-10-18T15:08:33.324Z,5.30
2017-10-18T15:11:02.030Z,6.30
2017-10-18T15:13:30.388Z,5.23
2017-10-18T15:15:58.727Z,5.03
2017-10-18T15:18:27.083Z,5.00
2017-10-18T15:20:55.431Z,5.07
2017-10-18T15:23:23.807Z,5.47
2017-10-18T15:25:52.176Z,5.30
2017-10-18T15:28:20.520Z,5.00
2017-10-18T15:30:49.805Z,5.50
2017-10-18T15:33:18.147Z,5.57
2017-10-18T15:35:46.500Z,5.23
2017-10-18T15:38:14.845Z,5.20
2017-10-18T15:40:43.180Z,5.50
2017-10-18T15:43:11.552Z,5.87
2017-10-18T15:45:39.900Z,5.87
2017-10-18T15:48:08.275Z,5.77
2017-10-18T15:50:36.625Z,5.33
2017-10-18T15:53:04.964Z,6.00
2017-10-18T15:55:33.308Z,5.33
2017-10-18T15:58:01.655Z,5.47
2017-10-18T16:00:30.000Z,5.80
2017-10-18T16:02:58.423Z,4.97
2017-10-18T16:05:26.804Z,5.73
2017-10-18T16:07:55.149Z,5.30
2017-10-18T16:10:23.490Z,5.80
2017-10-18T16:12:51.860Z,5.60
2017-10-18T16:15:20.272Z,5.47
2017-10-18T16:17:48.613Z,5.97
2017-10-18T16:20:16.997Z,4.93
2017-10-18T16:22:45.364Z,5.70
2017-10-18T16:25:13.716Z,5.80
2017-10-18T16:27:42.068Z,5.90
2017-10-18T16:30:10.408Z,6.00
2017-10-18T16:32:38.779Z,6.20
2017-10-18T16:35:07.135Z,6.30
2017-10-18T16:37:35.520Z,6.00
2017-10-18T16:40:03.873Z,6.17
2017-10-18T16:42:32.244Z,6.50
2017-10-18T16:45:00.588Z,6.50
2017-10-18T16:47:28.965Z,6.97
2017-10-18T16:49:57.300Z,5.47
2017-10-18T16:52:25.692Z,6.80
2017-10-18T16:54:54.039Z,6.87
2017-10-18T16:57:22.388Z,6.60
2017-10-18T16:59:50.738Z,7.40
2017-10-18T17:02:19.096Z,7.27
2017-10-18T17:04:47.480Z,6.97
2017-10-18T17:07:15.837Z,7.50
2017-10-18T17:09:44.195Z,6.80
2017-10-18T17:12:12.543Z,7.20
2017-10-18T17:14:40.949Z,7.30
2017-10-18T17:17:09.300Z,7.50
2017-10-18T17:19:37.679Z,7.80
2017-10-18T17:22:06.028Z,7.20
2017-10-18T17:24:34.405Z,7.33
2017-10-18T17:27:02.747Z,7.30
2017-10-18T17:29:31.124Z,7.23
2017-10-18T17:31:59.467Z,7.37
2017-10-18T17:34:27.810Z,7.20
2017-10-18T17:36:56.172Z,7.30
2017-10-18T17:39:24.511Z,8.20
2017-10-18T17:41:52.872Z,7.80
2017-10-18T17:44:21.245Z,7.80
2017-10-18T17:46:49.590Z,8.50
2017-10-18T17:49:17.970Z,7.60
2017-10-18T17:51:46.353Z,9.00
2017-10-18T17:54:14.695Z,8.53
2017-10-18T17:56:43.071Z,8.63
2017-10-18T17:59:11.423Z,9.00
2017-10-18T18:01:39.847Z,8.67
2017-10-18T18:04:08.252Z,8.93
2017-10-18T18:06:36.608Z,9.33
2017-10-18T18:09:04.950Z,8.27
2017-10-18T18:11:33.296Z,7.70
2017-10-18T18:14:01.643Z,9.00
2017-10-18T18:16:30.021Z,7.97
2017-10-18T18:18:58.381Z,8.33
2017-10-18T18:21:26.753Z,9.10
2017-10-18T18:23:55.117Z,9.20
2017-10-18T18:26:23.501Z,7.93
2017-10-18T18:28:51.846Z,8.63
2017-10-18T18:31:20.252Z,9.70
2017-10-18T18:33:48.628Z,8.30
2017-10-18T18:36:17.462Z,9.73
2017-10-18T18:38:45.807Z,9.23
2017-10-18T18:41:14.165Z,8.37
2017-10-18T18:43:42.512Z,9.77
2017-10-18T18:46:10.858Z,8.93
2017-10-18T18:48:39.224Z,9.70
2017-10-18T18:51:07.580Z,9.30
2017-10-18T18:53:36.085Z,9.87
2017-10-18T18:56:04.527Z,9.90
2017-10-18T18:58:33.102Z,8.77
2017-10-18T19:01:01.792Z,9.87
2017-10-18T19:03:31.469Z,8.73
2017-10-18T19:06:00.197Z,9.77
2017-10-18T19:08:28.891Z,9.70
2017-10-18T19:10:57.355Z,10.60
2017-10-18T19:13:26.089Z,9.03
2017-10-18T19:15:54.739Z,9.57
2017-10-18T19:18:24.038Z,9.40
2017-10-18T19:20:54.181Z,9.23
2017-10-18T19:23:23.724Z,9.30
2017-10-18T19:25:59.125Z,9.43
2017-10-18T19:28:27.771Z,9.80
2017-10-18T19:30:57.788Z,9.63
2017-10-18T19:33:28.579Z,9.27
2017-10-18T19:35:57.290Z,9.00
2017-10-18T19:38:26.066Z,9.60
2017-10-18T19:40:55.640Z,9.70
2017-10-18T19:43:24.083Z,8.63
2017-10-18T19:45:52.494Z,9.03
2017-10-18T19:48:21.107Z,9.50
2017-10-18T19:50:49.799Z,9.23
2017-10-18T19:53:20.742Z,10.97
2017-10-18T19:55:49.372Z,10.40
2017-10-18T19:58:21.172Z,9.57
2017-10-18T20:00:49.560Z,10.87
2017-10-18T20:03:17.916Z,10.37
2017-10-18T20:05:46.305Z,11.27
2017-10-18T20:08:14.669Z,9.90
2017-10-18T20:10:43.023Z,10.43
2017-10-18T20:13:11.383Z,11.23
2017-10-18T20:15:39.747Z,11.10
2017-10-18T20:18:08.147Z,10.60
2017-10-18T20:20:36.510Z,10.73
2017-10-18T20:23:04.887Z,11.40
2017-10-18T20:25:33.292Z,10.90
2017-10-18T20:28:02.148Z,11.83
2017-10-18T20:30:30.501Z,10.97
2017-10-18T20:32:59.211Z,12.27
2017-10-18T20:35:27.571Z,12.63
2017-10-18T20:37:55.938Z,11.10
2017-10-18T20:40:24.333Z,12.60
2017-10-18T20:42:52.719Z,14.43
2017-10-18T20:45:21.077Z,13.17
2017-10-18T20:47:49.465Z,14.27
2017-10-18T20:50:17.830Z,12.40
2017-10-18T20:52:46.223Z,14.47
2017-10-18T20:55:14.606Z,14.73
2017-10-18T20:57:42.997Z,13.60
2017-10-18T21:00:11.394Z,14.57
2017-10-18T21:02:39.780Z,14.93
2017-10-18T21:05:08.153Z,14.40
2017-10-18T21:07:36.503Z,14.17
2017-10-18T21:10:04.874Z,14.27
2017-10-18T21:12:33.230Z,13.87
2017-10-18T21:15:01.593Z,14.73
2017-10-18T21:17:29.986Z,15.60
2017-10-18T21:19:58.336Z,14.80
2017-10-18T21:22:26.699Z,14.40
2017-10-18T21:24:55.065Z,14.40
2017-10-18T21:27:23.427Z,14.00
2017-10-18T21:29:51.925Z,15.30
2017-10-18T21:32:20.308Z,15.80
2017-10-18T21:34:48.672Z,15.57
2017-10-18T21:37:17.039Z,16.70
2017-10-18T21:39:45.395Z,17.67
2017-10-18T21:42:13.753Z,17.13
2017-10-18T21:44:42.142Z,18.17
2017-10-18T21:47:10.509Z,16.80
2017-10-18T21:49:38.887Z,17.73
2017-10-18T21:52:07.649Z,17.97
2017-10-18T21:54:36.053Z,16.60
2017-10-18T21:57:04.799Z,14.63
2017-10-18T21:59:33.187Z,14.87
2017-10-18T22:02:01.579Z,14.77
2017-10-18T22:04:29.938Z,15.20
2017-10-18T22:06:58.301Z,14.20
2017-10-18T22:09:26.652Z,15.30
2017-10-18T22:11:55.012Z,14.30
2017-10-18T22:14:23.394Z,15.10
2017-10-18T22:16:51.759Z,14.77
2017-10-18T22:19:20.112Z,15.23
2017-10-18T22:21:48.468Z,14.83
2017-10-18T22:24:16.829Z,15.23
2017-10-18T22:26:45.192Z,16.30
2017-10-18T22:29:13.556Z,15.40
2017-10-18T22:31:41.916Z,15.17
2017-10-18T22:34:10.300Z,14.43
2017-10-18T22:36:38.660Z,14.90
2017-10-18T22:39:07.040Z,16.33
2017-10-18T22:41:35.396Z,16.10
2017-10-18T22:44:03.760Z,15.40
2017-10-18T22:46:32.124Z,15.40
2017-10-18T22:49:00.485Z,14.43
2017-10-18T22:51:28.840Z,15.53
2017-10-18T22:53:57.200Z,16.43
2017-10-18T22:56:25.595Z,16.57
2017-10-18T22:58:53.956Z,15.53
2017-10-18T23:01:22.312Z,15.73
2017-10-18T23:03:50.673Z,15.70
2017-10-18T23:06:19.104Z,16.80
2017-10-18T23:08:47.456Z,17.30
2017-10-18T23:11:15.836Z,15.13
2017-10-18T23:13:44.196Z,15.20
2017-10-18T23:16:12.559Z,15.40
2017-10-18T23:18:40.909Z,15.63
2017-10-18T23:21:09.315Z,15.57
2017-10-18T23:23:37.689Z,15.20
2017-10-18T23:26:06.071Z,14.17
2017-10-18T23:28:34.465Z,15.40
2017-10-18T23:31:02.845Z,14.90
2017-10-18T23:33:31.195Z,14.80
2017-10-18T23:35:59.580Z,15.30
2017-10-18T23:38:27.940Z,13.93
2017-10-18T23:40:56.296Z,14.83
2017-10-18T23:43:24.660Z,14.80
2017-10-18T23:45:53.044Z,15.07
2017-10-18T23:48:21.394Z,14.90
2017-10-18T23:50:49.759Z,15.57
2017-10-18T23:53:18.145Z,16.00
2017-10-18T23:55:46.499Z,16.30
2017-10-18T23:58:14.890Z,16.60
